Time;durP1;ratioP1;P1;durP2;ratioP2;P2;SDS_P1;SDS_P2;PMS_P1;PMS_P2;Temp;Humidity;BMP_temperature;BMP_pressure;BME280_temperature;BME280_humidity;BME280_pressure;Samples;Min_cycle;Max_cycle;Signal;HPM_P1;HPM_P2
2022/08/06 00:00:31;;;;;;;59.67;52.70;;;17.50;97.90;;;;;;4176463;28;20226;-73
2022/08/06 00:02:32;;;;;;;593.03;135.57;;;17.40;98.40;;;;;;4178552;28;20203;-73
2022/08/06 00:04:33;;;;;;;62.30;54.23;;;17.30;99.50;;;;;;4193882;28;20562;-73
2022/08/06 00:06:34;;;;;;;188.33;50.47;;;17.20;99.50;;;;;;4178983;28;20184;-73
2022/08/06 00:08:35;;;;;;;331.83;69.97;;;17.40;99.90;;;;;;4178397;28;20271;-73
2022/08/06 00:10:36;;;;;;;238.03;88.00;;;17.40;99.90;;;;;;4180565;28;20668;-73
2022/08/06 00:12:36;;;;;;;68.87;55.53;;;17.10;99.90;;;;;;4180157;28;20200;-74
2022/08/06 00:14:37;;;;;;;171.43;66.20;;;17.10;99.90;;;;;;4181276;28;20219;-73
2022/08/06 00:16:39;;;;;;;328.77;74.50;;;17.00;99.90;;;;;;4181443;28;20168;-73
2022/08/06 00:18:40;;;;;;;324.17;98.60;;;17.00;99.90;;;;;;4180185;28;20181;-73
2022/08/06 00:20:40;;;;;;;70.37;63.27;;;17.00;99.90;;;;;;4179524;28;20172;-73
2022/08/06 00:22:42;;;;;;;67.97;29.60;;;17.00;99.90;;;;;;4181433;28;20213;-74
2022/08/06 00:24:43;;;;;;;118.57;59.87;;;17.10;99.90;;;;;;4181220;28;20212;-74
2022/08/06 00:26:44;;;;;;;151.53;55.93;;;17.10;99.90;;;;;;4180107;28;20912;-73
2022/08/06 00:28:45;;;;;;;349.03;90.50;;;17.10;99.90;;;;;;4180058;28;20283;-73
2022/08/06 00:30:46;;;;;;;43.50;32.80;;;17.00;99.90;;;;;;4180316;28;20230;-73
2022/08/06 00:32:47;;;;;;;582.87;124.97;;;17.00;99.90;;;;;;4181498;28;20649;-73
2022/08/06 00:34:48;;;;;;;68.83;42.13;;;17.00;99.90;;;;;;4176619;28;20255;-73
2022/08/06 00:36:48;;;;;;;78.03;50.03;;;17.00;99.90;;;;;;4163227;28;20673;-73
2022/08/06 00:38:49;;;;;;;66.57;39.63;;;16.80;99.90;;;;;;4162997;28;20285;-72
2022/08/06 00:40:50;;;;;;;332.67;71.80;;;16.80;99.90;;;;;;4163763;28;20192;-73
2022/08/06 00:42:51;;;;;;;166.57;39.30;;;16.90;99.90;;;;;;4163234;28;20189;-73
2022/08/06 00:44:52;;;;;;;113.57;45.83;;;16.80;99.90;;;;;;4163031;28;20200;-74
2022/08/06 00:46:53;;;;;;;35.83;23.57;;;16.80;99.90;;;;;;4164362;28;20731;-72
2022/08/06 00:48:54;;;;;;;495.33;173.13;;;16.80;99.90;;;;;;4163114;28;20272;-73
2022/08/06 00:50:54;;;;;;;119.70;40.00;;;16.70;99.90;;;;;;4162436;28;20316;-73
2022/08/06 00:52:55;;;;;;;96.27;32.83;;;16.70;99.90;;;;;;4164249;28;20532;-73
2022/08/06 00:54:56;;;;;;;53.37;42.30;;;16.70;99.90;;;;;;4164358;28;20196;-74
2022/08/06 00:56:56;;;;;;;645.43;126.50;;;16.70;99.90;;;;;;4163061;28;20193;-72
2022/08/06 00:58:57;;;;;;;24.90;23.00;;;16.60;99.90;;;;;;4164247;28;20181;-73
2022/08/06 01:00:58;;;;;;;76.50;43.90;;;16.60;99.90;;;;;;4163548;28;20185;-73
2022/08/06 01:02:58;;;;;;;255.27;50.07;;;16.50;99.90;;;;;;4164176;28;20249;-73
2022/08/06 01:04:59;;;;;;;84.83;29.77;;;16.50;99.90;;;;;;4162902;28;20728;-73
2022/08/06 01:06:59;;;;;;;144.37;45.17;;;16.50;99.90;;;;;;4164001;28;20188;-74
2022/08/06 01:09:00;;;;;;;86.70;33.37;;;16.50;99.90;;;;;;4162780;28;20177;-73
2022/08/06 01:11:01;;;;;;;13.33;12.13;;;16.40;99.90;;;;;;4163448;28;20177;-73
2022/08/06 01:13:01;;;;;;;67.03;46.67;;;16.50;99.90;;;;;;4164210;28;20866;-74
2022/08/06 01:15:05;;;;;;;23.37;21.43;;;16.40;99.60;;;;;;4163961;28;20192;-73
2022/08/06 01:17:21;;;;;;;940.77;164.67;;;16.30;99.90;;;;;;4163919;28;20212;-73
2022/08/06 01:19:21;;;;;;;11.27;10.33;;;16.30;99.90;;;;;;4172818;28;20275;-74
2022/08/06 01:21:38;;;;;;;11.17;10.17;;;16.40;99.90;;;;;;4178661;28;20258;-73
2022/08/06 01:23:57;;;;;;;90.67;65.60;;;16.30;99.90;;;;;;4180178;28;20187;-74
2022/08/06 01:26:20;;;;;;;6.97;6.27;;;16.10;99.90;;;;;;4180277;28;20172;-74
2022/08/06 01:28:32;;;;;;;9.93;9.23;;;15.90;99.90;;;;;;4180131;28;20726;-74
2022/08/06 01:30:46;;;;;;;180.20;49.20;;;15.80;99.90;;;;;;4179474;28;20206;-75
2022/08/06 01:32:59;;;;;;;7.73;7.03;;;15.90;99.90;;;;;;4178848;28;20722;-73
2022/08/06 01:35:15;;;;;;;9.57;8.87;;;15.90;99.90;;;;;;4178751;28;20352;-73
2022/08/06 01:37:39;;;;;;;6.77;6.17;;;16.00;99.90;;;;;;4178883;28;20188;-73
2022/08/06 01:39:42;;;;;;;7.17;6.47;;;15.90;99.90;;;;;;4179764;28;20673;-73
2022/08/06 01:41:48;;;;;;;13.57;12.53;;;15.90;99.90;;;;;;4178135;28;20200;-74
2022/08/06 01:43:49;;;;;;;7.30;6.60;;;15.90;99.90;;;;;;4180065;28;20215;-74
2022/08/06 01:45:53;;;;;;;7.60;6.83;;;15.90;99.90;;;;;;4179875;28;20184;-73
2022/08/06 01:48:01;;;;;;;11.40;10.50;;;15.90;99.90;;;;;;4178496;28;20191;-73
2022/08/06 01:50:05;;;;;;;7.03;6.43;;;15.80;99.90;;;;;;4178715;28;20172;-74
2022/08/06 01:52:07;;;;;;;55.73;23.70;;;15.80;99.60;;;;;;4179473;28;20208;-75
2022/08/06 01:54:10;;;;;;;15.73;14.60;;;15.90;99.90;;;;;;4179832;28;20607;-73
2022/08/06 01:56:11;;;;;;;9.47;8.73;;;15.80;98.80;;;;;;4179811;28;20188;-73
2022/08/06 01:58:14;;;;;;;8.33;7.73;;;15.90;99.50;;;;;;4179660;28;20581;-74
2022/08/06 02:00:15;;;;;;;22.10;20.67;;;16.00;99.10;;;;;;4179291;28;20188;-73
2022/08/06 02:02:23;;;;;;;13.23;12.03;;;15.70;98.80;;;;;;4179749;28;20231;-73
2022/08/06 02:04:29;;;;;;;19.87;18.73;;;15.80;98.70;;;;;;4178380;28;20160;-73
2022/08/06 02:06:39;;;;;;;10.17;9.47;;;15.80;98.20;;;;;;4180137;28;20189;-73
2022/08/06 02:08:43;;;;;;;55.53;39.40;;;15.70;98.50;;;;;;4178465;28;20285;-73
2022/08/06 02:10:45;;;;;;;9.80;9.10;;;15.70;98.90;;;;;;4177541;28;20190;-73
2022/08/06 02:12:47;;;;;;;12.90;11.83;;;15.80;98.90;;;;;;4179913;28;20188;-73
2022/08/06 02:14:52;;;;;;;8.67;8.07;;;15.70;98.50;;;;;;4179330;28;20254;-73
2022/08/06 02:16:57;;;;;;;8.43;7.63;;;15.80;98.10;;;;;;4179494;28;20168;-73
2022/08/06 02:19:01;;;;;;;44.67;13.80;;;15.80;98.10;;;;;;4176623;28;20228;-72
2022/08/06 02:21:06;;;;;;;6.27;5.67;;;15.70;97.60;;;;;;4175392;28;20178;-73
2022/08/06 02:23:12;;;;;;;18.70;17.40;;;15.70;97.30;;;;;;4177790;28;20198;-74
2022/08/06 02:25:16;;;;;;;10.63;9.83;;;15.80;97.70;;;;;;4179630;28;20648;-73
2022/08/06 02:27:19;;;;;;;8.97;8.17;;;15.60;98.30;;;;;;4179252;28;20225;-73
2022/08/06 02:29:21;;;;;;;56.53;34.73;;;15.70;98.00;;;;;;4177527;28;20589;-73
2022/08/06 02:31:22;;;;;;;311.50;72.60;;;15.60;97.80;;;;;;4163985;28;20693;-73
2022/08/06 02:33:23;;;;;;;320.70;73.33;;;15.70;96.60;;;;;;4162548;28;20180;-73
2022/08/06 02:35:25;;;;;;;15.87;14.20;;;15.70;96.20;;;;;;4162616;28;20184;-73
2022/08/06 02:37:33;;;;;;;27.67;18.97;;;15.80;95.50;;;;;;4162703;28;20185;-72
2022/08/06 02:39:41;;;;;;;33.53;21.53;;;15.70;96.30;;;;;;4162826;28;20185;-74
2022/08/06 02:42:07;;;;;;;25.07;22.53;;;15.70;95.60;;;;;;4161958;28;20271;-73
2022/08/06 02:44:22;;;;;;;10.97;9.87;;;15.70;96.50;;;;;;4162816;28;20204;-73
2022/08/06 02:46:31;;;;;;;10.47;9.73;;;15.70;95.60;;;;;;4176454;28;20207;-73
2022/08/06 02:48:44;;;;;;;4.00;3.60;;;15.60;96.50;;;;;;4179048;28;20172;-73
2022/08/06 02:50:47;;;;;;;6.30;5.10;;;15.50;95.00;;;;;;4178247;28;20198;-72
2022/08/06 02:53:01;;;;;;;10.80;10.00;;;15.50;95.90;;;;;;4179048;28;20273;-72
2022/08/06 02:55:16;;;;;;;7.13;6.67;;;15.60;95.60;;;;;;4177513;28;20223;-73
2022/08/06 02:57:22;;;;;;;7.90;7.37;;;15.70;95.70;;;;;;4178918;28;20207;-73
2022/08/06 02:59:28;;;;;;;54.73;25.37;;;15.60;95.80;;;;;;4178877;28;20306;-72
2022/08/06 03:01:36;;;;;;;17.53;16.10;;;15.60;95.20;;;;;;4178248;28;20575;-72
2022/08/06 03:03:39;;;;;;;64.30;26.40;;;15.60;95.00;;;;;;4178905;28;20290;-72
2022/08/06 03:05:43;;;;;;;13.47;12.57;;;15.60;94.90;;;;;;4178921;28;20195;-73
2022/08/06 03:07:46;;;;;;;17.40;16.03;;;15.60;94.70;;;;;;4177505;28;20786;-73
2022/08/06 03:09:49;;;;;;;15.80;14.70;;;15.50;94.30;;;;;;4178887;28;20222;-73
2022/08/06 03:11:51;;;;;;;5.43;4.73;;;15.40;95.30;;;;;;4178561;28;20365;-74
2022/08/06 03:13:54;;;;;;;4.70;4.30;;;15.40;96.00;;;;;;4178786;28;20235;-73
2022/08/06 03:15:57;;;;;;;26.77;24.47;;;15.50;95.00;;;;;;4178815;28;20542;-73
2022/08/06 03:18:00;;;;;;;11.77;10.87;;;15.60;95.30;;;;;;4177450;28;20192;-73
2022/08/06 03:20:04;;;;;;;16.23;12.57;;;15.60;95.80;;;;;;4178629;28;20184;-73
2022/08/06 03:22:06;;;;;;;10.27;9.67;;;15.70;94.90;;;;;;4178309;28;20208;-73
2022/08/06 03:24:08;;;;;;;9.33;8.70;;;15.70;94.20;;;;;;4178947;28;20192;-73
2022/08/06 03:26:10;;;;;;;149.50;55.83;;;15.70;94.20;;;;;;4178526;28;20188;-73
2022/08/06 03:28:12;;;;;;;22.73;20.90;;;15.80;94.00;;;;;;4177400;28;20192;-73
2022/08/06 03:30:18;;;;;;;18.83;17.50;;;15.80;93.70;;;;;;4176850;28;20223;-72
2022/08/06 03:32:19;;;;;;;162.47;47.07;;;15.70;92.80;;;;;;4178346;28;20200;-76
2022/08/06 03:34:20;;;;;;;6.30;5.80;;;15.70;92.40;;;;;;4178484;28;20274;-73
2022/08/06 03:36:22;;;;;;;7.87;7.37;;;15.60;93.00;;;;;;4178595;28;20188;-72
2022/08/06 03:38:25;;;;;;;10.40;9.70;;;15.60;93.10;;;;;;4178639;28;20208;-73
2022/08/06 03:40:29;;;;;;;17.57;16.40;;;15.60;92.60;;;;;;4178256;28;20210;-73
2022/08/06 03:42:30;;;;;;;8.23;7.53;;;15.50;93.20;;;;;;4178706;28;20236;-73
2022/08/06 03:44:31;;;;;;;10.53;9.83;;;15.60;92.90;;;;;;4178303;28;20196;-73
2022/08/06 03:46:41;;;;;;;7.80;7.20;;;15.50;93.20;;;;;;4181641;28;20180;-73
2022/08/06 03:48:42;;;;;;;78.17;31.97;;;15.40;93.00;;;;;;4196884;28;20171;-72
2022/08/06 03:50:48;;;;;;;8.83;8.23;;;15.40;94.00;;;;;;4181081;28;20242;-73
2022/08/06 03:52:55;;;;;;;5.63;5.23;;;15.40;94.20;;;;;;4181466;28;20184;-74
2022/08/06 03:55:01;;;;;;;71.67;43.30;;;15.30;93.80;;;;;;4163511;28;20193;-73
2022/08/06 03:57:12;;;;;;;9.23;8.50;;;15.40;93.50;;;;;;4181476;28;20189;-73
2022/08/06 03:59:14;;;;;;;7.03;6.13;;;15.40;93.10;;;;;;4181690;28;20583;-73
2022/08/06 04:01:19;;;;;;;7.20;6.70;;;15.40;92.20;;;;;;4179685;28;20276;-73
2022/08/06 04:03:21;;;;;;;10.73;10.03;;;15.20;92.50;;;;;;4181371;28;20165;-72
2022/08/06 04:05:28;;;;;;;10.00;9.20;;;15.20;92.40;;;;;;4179968;28;20202;-72
2022/08/06 04:07:29;;;;;;;6.13;5.63;;;15.20;92.40;;;;;;4180142;28;20181;-72
2022/08/06 04:09:32;;;;;;;5.27;4.77;;;15.20;91.90;;;;;;4181310;28;20217;-72
2022/08/06 04:11:33;;;;;;;6.93;6.43;;;15.30;92.00;;;;;;4180533;28;20246;-72
2022/08/06 04:13:36;;;;;;;7.30;6.70;;;15.30;91.90;;;;;;4181105;28;20204;-73
2022/08/06 04:15:37;;;;;;;7.07;6.67;;;15.30;91.50;;;;;;4179874;28;20284;-72
2022/08/06 04:17:38;;;;;;;7.30;6.67;;;15.40;91.80;;;;;;4181156;28;20187;-72
2022/08/06 04:19:40;;;;;;;39.53;22.93;;;15.50;91.20;;;;;;4181195;28;20264;-72
2022/08/06 04:21:41;;;;;;;9.20;8.53;;;15.50;91.20;;;;;;4178730;28;20211;-72
2022/08/06 04:23:42;;;;;;;5.00;4.50;;;15.50;91.70;;;;;;4181419;28;20557;-72
2022/08/06 04:25:50;;;;;;;45.30;14.10;;;15.60;91.10;;;;;;4179922;28;20254;-72
2022/08/06 04:27:51;;;;;;;136.50;28.77;;;15.60;91.10;;;;;;4181051;28;20207;-73
2022/08/06 04:29:54;;;;;;;13.10;12.20;;;15.50;91.10;;;;;;4178993;28;20195;-72
2022/08/06 04:31:57;;;;;;;40.03;36.87;;;15.40;91.10;;;;;;4171974;28;20219;-73
2022/08/06 04:34:00;;;;;;;5.83;5.33;;;15.40;91.40;;;;;;4180657;28;20211;-72
2022/08/06 04:36:05;;;;;;;9.63;8.80;;;15.30;91.20;;;;;;4180845;28;20176;-73
2022/08/06 04:38:06;;;;;;;4.90;4.60;;;15.30;91.90;;;;;;4179651;28;20835;-72
2022/08/06 04:40:09;;;;;;;24.40;22.60;;;15.20;91.20;;;;;;4180972;28;20195;-72
2022/08/06 04:42:09;;;;;;;30.90;27.73;;;15.10;91.40;;;;;;4180552;28;20208;-72
2022/08/06 04:44:11;;;;;;;5.33;4.93;;;15.30;91.60;;;;;;4162962;28;20186;-73
2022/08/06 04:46:12;;;;;;;14.77;13.30;;;15.30;90.40;;;;;;4180715;28;20817;-72
2022/08/06 04:48:13;;;;;;;22.23;8.33;;;15.30;90.60;;;;;;4180723;28;20646;-73
2022/08/06 04:50:14;;;;;;;23.23;15.67;;;15.40;90.70;;;;;;4180102;28;20192;-73
2022/08/06 04:52:23;;;;;;;16.43;8.83;;;15.50;90.30;;;;;;4180389;28;20245;-73
2022/08/06 04:54:24;;;;;;;28.20;22.13;;;15.50;90.70;;;;;;4180526;28;20204;-73
2022/08/06 04:56:24;;;;;;;6.53;6.13;;;15.60;90.30;;;;;;4179419;28;20553;-73
2022/08/06 04:58:25;;;;;;;7.93;5.63;;;15.60;88.80;;;;;;4180609;28;20181;-73
2022/08/06 05:00:25;;;;;;;4.67;4.27;;;15.50;90.30;;;;;;4179713;28;20183;-73
2022/08/06 05:02:26;;;;;;;9.03;8.10;;;15.40;90.80;;;;;;4180372;28;20213;-73
2022/08/06 05:04:31;;;;;;;5.53;5.10;;;15.50;90.00;;;;;;4179244;28;20192;-73
2022/08/06 05:06:52;;;;;;;12.23;11.33;;;15.40;90.30;;;;;;4180378;28;20192;-73
2022/08/06 05:08:57;;;;;;;4.53;3.87;;;15.60;89.60;;;;;;4179313;28;20188;-73
2022/08/06 05:11:08;;;;;;;6.10;5.67;;;15.50;89.00;;;;;;4179768;28;20400;-73
2022/08/06 05:13:11;;;;;;;14.97;12.30;;;15.40;88.90;;;;;;4180371;28;20176;-73
2022/08/06 05:15:53;;;;;;;5.57;5.07;;;15.50;89.20;;;;;;4180165;28;20196;-73
2022/08/06 05:18:06;;;;;;;13.37;12.37;;;15.40;89.30;;;;;;4189746;28;20264;-73
2022/08/06 05:20:14;;;;;;;9.30;8.47;;;15.60;88.80;;;;;;4163011;28;20197;-73
2022/08/06 05:22:17;;;;;;;6.50;6.07;;;15.60;89.00;;;;;;4162411;28;20200;-73
2022/08/06 05:24:18;;;;;;;14.73;13.53;;;15.50;89.10;;;;;;4163691;28;20196;-73
2022/08/06 05:26:19;;;;;;;4.57;3.13;;;15.70;86.50;;;;;;4163584;28;20185;-73
2022/08/06 05:28:19;;;;;;;24.53;11.43;;;15.50;88.80;;;;;;4163494;28;20204;-73
2022/08/06 05:30:20;;;;;;;5.10;4.77;;;15.60;88.10;;;;;;4162796;28;20196;-73
2022/08/06 05:32:21;;;;;;;3.80;3.50;;;15.70;87.60;;;;;;4163558;28;20713;-73
2022/08/06 05:34:21;;;;;;;5.77;5.43;;;15.70;87.30;;;;;;4163348;28;20288;-73
2022/08/06 05:36:22;;;;;;;59.17;26.93;;;15.70;87.00;;;;;;4163450;28;20189;-72
2022/08/06 05:38:23;;;;;;;15.10;13.90;;;15.50;88.60;;;;;;4163607;28;20189;-73
2022/08/06 05:40:24;;;;;;;24.03;21.83;;;15.60;87.30;;;;;;4163020;28;20194;-73
2022/08/06 05:42:24;;;;;;;4.03;3.63;;;15.50;87.40;;;;;;4163511;28;20240;-73
2022/08/06 05:44:25;;;;;;;9.53;7.70;;;15.60;87.70;;;;;;4163191;28;20192;-73
2022/08/06 05:46:36;;;;;;;5.90;5.60;;;15.60;87.60;;;;;;4162029;28;20192;-73
2022/08/06 05:48:41;;;;;;;4.57;4.23;;;15.70;87.50;;;;;;4162139;28;20271;-74
2022/08/06 05:51:06;;;;;;;11.97;11.07;;;15.60;87.50;;;;;;4161290;28;20585;-73
2022/08/06 05:53:14;;;;;;;5.53;5.03;;;15.80;86.40;;;;;;4161929;28;20196;-74
2022/08/06 05:55:21;;;;;;;130.97;81.43;;;15.60;86.50;;;;;;4163611;28;20180;-74
2022/08/06 05:57:40;;;;;;;48.60;43.50;;;15.50;86.90;;;;;;4163446;28;20272;-74
2022/08/06 05:59:50;;;;;;;10.93;10.17;;;15.60;87.00;;;;;;4163474;28;20184;-74
2022/08/06 06:01:51;;;;;;;112.20;93.50;;;15.70;86.80;;;;;;4162622;28;20311;-74
2022/08/06 06:03:54;;;;;;;3.43;3.13;;;15.50;85.90;;;;;;4163293;28;20657;-74
2022/08/06 06:05:57;;;;;;;8.50;7.93;;;15.50;88.00;;;;;;4163128;28;20192;-74
2022/08/06 06:07:59;;;;;;;4.87;4.53;;;15.60;87.80;;;;;;4161533;28;20188;-74
2022/08/06 06:10:01;;;;;;;7.17;6.67;;;15.60;88.00;;;;;;4163079;28;20235;-74
2022/08/06 06:12:03;;;;;;;3.57;3.27;;;15.90;86.40;;;;;;4162187;28;20200;-74
2022/08/06 06:14:06;;;;;;;17.93;16.50;;;16.00;85.40;;;;;;4162735;28;20258;-74
2022/08/06 06:16:24;;;;;;;4.57;4.23;;;16.10;83.80;;;;;;4162893;28;20227;-74
2022/08/06 06:18:47;;;;;;;14.40;12.83;;;15.90;83.30;;;;;;4162823;28;20172;-74
2022/08/06 06:21:11;;;;;;;26.23;24.17;;;15.90;84.60;;;;;;4164451;28;20172;-73
2022/08/06 06:23:20;;;;;;;7.30;6.90;;;15.80;85.60;;;;;;4161397;28;20161;-74
2022/08/06 06:25:42;;;;;;;52.33;28.60;;;15.80;84.70;;;;;;4162765;28;20597;-74
2022/08/06 06:28:30;;;;;;;11.90;10.80;;;15.80;84.80;;;;;;4144943;28;20653;-74
2022/08/06 06:30:46;;;;;;;34.20;26.00;;;15.90;84.50;;;;;;4161876;28;20586;-74
2022/08/06 06:32:55;;;;;;;78.40;33.80;;;15.80;84.50;;;;;;4161363;28;20638;-74
2022/08/06 06:35:42;;;;;;;4.27;3.87;;;15.70;86.20;;;;;;4162369;28;20201;-74
2022/08/06 06:37:50;;;;;;;58.30;31.40;;;15.70;85.60;;;;;;4162521;28;20207;-74
2022/08/06 06:40:15;;;;;;;64.70;27.63;;;15.60;85.70;;;;;;4161323;28;20588;-75
2022/08/06 06:42:21;;;;;;;10.00;9.23;;;15.60;86.10;;;;;;4162310;28;20203;-74
2022/08/06 06:44:36;;;;;;;4.40;3.63;;;15.60;87.40;;;;;;4161199;28;20189;-74
2022/08/06 06:46:56;;;;;;;218.10;157.17;;;15.50;87.30;;;;;;4162422;28;20573;-74
2022/08/06 06:49:07;;;;;;;35.50;17.17;;;15.50;86.80;;;;;;4161056;28;20188;-74
2022/08/06 06:51:16;;;;;;;16.10;14.80;;;15.70;86.50;;;;;;4161746;28;20278;-74
2022/08/06 06:53:18;;;;;;;24.97;8.07;;;15.90;86.90;;;;;;4160882;28;20224;-74
2022/08/06 06:55:41;;;;;;;6.87;6.33;;;16.00;84.60;;;;;;4162364;28;20265;-74
2022/08/06 06:57:47;;;;;;;57.07;52.60;;;16.30;83.40;;;;;;4162290;28;20185;-74
2022/08/06 06:59:53;;;;;;;5.87;5.50;;;16.20;84.10;;;;;;4162395;28;20790;-74
2022/08/06 07:01:54;;;;;;;7.80;7.30;;;16.20;83.90;;;;;;4161964;28;20205;-74
2022/08/06 07:03:57;;;;;;;11.43;10.33;;;16.50;82.70;;;;;;4161133;28;20173;-74
2022/08/06 07:05:58;;;;;;;45.77;37.70;;;16.80;81.00;;;;;;4160967;28;20184;-74
2022/08/06 07:08:00;;;;;;;5.37;5.03;;;16.90;77.40;;;;;;4161188;28;20181;-74
2022/08/06 07:10:03;;;;;;;4.77;4.27;;;17.00;76.20;;;;;;4162229;28;20268;-73
2022/08/06 07:12:08;;;;;;;9.83;9.00;;;17.00;75.80;;;;;;4160446;28;20201;-75
2022/08/06 07:14:09;;;;;;;3.80;3.57;;;17.40;72.90;;;;;;4160958;28;20223;-74
2022/08/06 07:16:12;;;;;;;7.83;5.87;;;17.20;74.20;;;;;;4160927;28;20177;-74
2022/08/06 07:18:14;;;;;;;12.67;11.17;;;17.20;74.30;;;;;;4161050;28;20177;-75
2022/08/06 07:20:26;;;;;;;16.23;14.87;;;17.30;74.90;;;;;;4146350;28;20182;-75
2022/08/06 07:22:28;;;;;;;421.77;76.03;;;17.50;73.80;;;;;;4164091;28;20200;-75
2022/08/06 07:24:31;;;;;;;275.10;95.80;;;17.70;71.60;;;;;;4169073;28;20290;-74
2022/08/06 07:26:33;;;;;;;5.53;5.13;;;17.80;71.70;;;;;;4180722;28;20256;-74
2022/08/06 07:28:35;;;;;;;75.97;30.97;;;17.80;70.10;;;;;;4164226;28;20173;-75
2022/08/06 07:30:36;;;;;;;6.93;4.43;;;17.80;70.20;;;;;;4147090;28;20591;-74
2022/08/06 07:32:37;;;;;;;130.13;48.77;;;17.70;69.30;;;;;;4163955;28;20235;-74
2022/08/06 07:34:40;;;;;;;15.40;14.27;;;17.80;70.60;;;;;;4165267;28;20665;-74
2022/08/06 07:36:52;;;;;;;69.83;35.53;;;18.00;68.80;;;;;;4164031;28;20230;-74
2022/08/06 07:39:02;;;;;;;29.83;13.60;;;18.10;69.10;;;;;;4164071;28;20161;-75
2022/08/06 07:41:05;;;;;;;16.80;15.27;;;18.10;69.00;;;;;;4147001;28;20192;-75
2022/08/06 07:43:13;;;;;;;14.50;13.47;;;18.40;67.30;;;;;;4163877;28;20209;-74
2022/08/06 07:45:15;;;;;;;7.83;7.23;;;18.30;67.00;;;;;;4147476;28;20174;-75
2022/08/06 07:47:21;;;;;;;7.57;7.03;;;17.80;70.20;;;;;;4165274;28;20180;-74
2022/08/06 07:49:25;;;;;;;152.57;59.27;;;18.10;70.00;;;;;;4163934;28;20166;-75
2022/08/06 07:51:30;;;;;;;16.77;15.63;;;18.30;68.00;;;;;;4163221;28;20275;-75
2022/08/06 07:53:35;;;;;;;40.87;22.03;;;18.50;67.40;;;;;;4147511;28;20627;-74
2022/08/06 07:55:37;;;;;;;84.37;36.97;;;18.20;67.10;;;;;;4163914;28;20790;-74
2022/08/06 07:57:39;;;;;;;341.77;99.60;;;18.20;67.20;;;;;;4163744;28;20181;-74
2022/08/06 07:59:40;;;;;;;24.50;22.60;;;18.30;67.40;;;;;;4164931;28;20263;-74
2022/08/06 08:01:42;;;;;;;297.83;82.90;;;18.30;67.10;;;;;;4168082;28;20232;-74
2022/08/06 08:06:23;;;;;;;105.53;43.13;;;18.50;66.40;;;;;;4172253;28;20234;-74
2022/08/06 08:08:25;;;;;;;40.53;13.73;;;18.90;65.00;;;;;;4180263;28;20671;-74
2022/08/06 08:10:26;;;;;;;333.40;125.60;;;19.10;63.40;;;;;;4179448;28;20260;-74
2022/08/06 08:12:27;;;;;;;23.23;21.33;;;19.10;63.20;;;;;;4169988;28;20204;-74
2022/08/06 08:14:30;;;;;;;11.67;10.83;;;18.60;66.00;;;;;;4177800;28;20285;-74
2022/08/06 08:16:32;;;;;;;62.00;26.40;;;18.20;66.50;;;;;;4179917;28;20208;-74
2022/08/06 08:18:33;;;;;;;13.33;12.07;;;18.50;66.00;;;;;;4179953;28;20647;-74
2022/08/06 08:20:35;;;;;;;1245.23;275.17;;;18.90;64.00;;;;;;4179145;28;20180;-74
2022/08/06 08:22:37;;;;;;;11.73;11.03;;;19.00;62.10;;;;;;4179745;28;20215;-74
2022/08/06 08:24:39;;;;;;;1183.20;321.87;;;18.90;63.80;;;;;;4181020;28;20180;-74
2022/08/06 08:26:39;;;;;;;7.30;6.70;;;18.60;64.60;;;;;;4180503;28;20187;-78
2022/08/06 08:28:40;;;;;;;43.93;26.07;;;19.00;63.80;;;;;;4180092;28;20184;-76
2022/08/06 08:30:42;;;;;;;259.73;81.17;;;19.20;63.00;;;;;;4179290;28;20696;-78
2022/08/06 08:32:43;;;;;;;58.70;27.10;;;19.20;61.30;;;;;;4181448;28;20208;-76
2022/08/06 08:34:44;;;;;;;54.50;24.80;;;19.10;63.80;;;;;;4181586;28;20200;-76
2022/08/06 08:36:44;;;;;;;7.23;6.73;;;19.40;62.30;;;;;;4163442;28;20184;-76
2022/08/06 08:38:45;;;;;;;4.43;4.13;;;19.70;60.60;;;;;;4181878;28;20199;-77
2022/08/06 08:40:48;;;;;;;34.43;18.50;;;19.40;61.50;;;;;;4181714;28;20188;-77
2022/08/06 08:42:53;;;;;;;67.00;19.93;;;19.20;62.50;;;;;;4164961;28;20195;-77
2022/08/06 08:44:56;;;;;;;12.80;11.90;;;19.70;61.20;;;;;;4180053;28;20192;-75
2022/08/06 08:46:59;;;;;;;219.77;140.10;;;19.80;60.30;;;;;;4180192;28;20204;-77
2022/08/06 08:49:04;;;;;;;247.03;53.93;;;19.60;59.90;;;;;;4180258;28;20618;-77
2022/08/06 08:51:06;;;;;;;582.67;128.87;;;19.30;61.70;;;;;;4180505;28;20208;-77
2022/08/06 08:53:13;;;;;;;385.10;76.20;;;19.30;60.80;;;;;;4180769;28;20738;-79
2022/08/06 08:55:17;;;;;;;109.80;35.57;;;19.50;59.60;;;;;;4180666;28;20250;-77
2022/08/06 08:57:18;;;;;;;5.33;5.03;;;19.50;60.30;;;;;;4179794;28;20279;-73
2022/08/06 08:59:20;;;;;;;268.80;81.27;;;20.10;58.10;;;;;;4179337;28;20242;-73
2022/08/06 09:01:21;;;;;;;71.07;16.53;;;20.50;55.80;;;;;;4178723;28;20196;-75
2022/08/06 09:03:22;;;;;;;4.37;3.97;;;20.10;56.20;;;;;;4180963;28;20188;-75
2022/08/06 09:05:23;;;;;;;15.77;14.70;;;20.00;57.60;;;;;;4181026;28;20180;-77
2022/08/06 09:07:24;;;;;;;156.53;65.10;;;20.50;55.60;;;;;;4179673;28;20306;-78
2022/08/06 09:09:26;;;;;;;6.73;6.30;;;20.60;54.90;;;;;;4182695;28;20732;-79
2022/08/06 09:11:27;;;;;;;144.30;66.20;;;19.90;58.60;;;;;;4182113;28;20296;-78
2022/08/06 09:13:28;;;;;;;155.83;64.67;;;20.50;55.80;;;;;;4166463;28;20385;-79
2022/08/06 09:15:29;;;;;;;7.47;7.07;;;20.10;57.40;;;;;;4182229;28;20962;-80
2022/08/06 09:17:30;;;;;;;261.60;63.30;;;20.30;56.40;;;;;;4163680;28;20544;-77
2022/08/06 09:19:32;;;;;;;535.63;148.37;;;20.60;56.00;;;;;;4179338;28;20199;-77
2022/08/06 09:21:33;;;;;;;17.37;10.13;;;20.50;55.70;;;;;;4163033;28;20196;-80
2022/08/06 09:23:39;;;;;;;46.53;15.00;;;20.30;56.50;;;;;;4181426;28;20189;-78
2022/08/06 09:25:47;;;;;;;7.53;7.00;;;20.70;55.80;;;;;;4164414;28;20188;-77
2022/08/06 09:27:48;;;;;;;47.20;16.60;;;20.70;55.50;;;;;;4179256;28;20207;-75
2022/08/06 09:29:59;;;;;;;54.50;14.03;;;20.90;54.20;;;;;;4178853;28;20184;-77
2022/08/06 09:32:04;;;;;;;73.83;24.80;;;20.70;55.20;;;;;;4178564;28;20981;-79
2022/08/06 09:34:06;;;;;;;62.77;17.47;;;21.00;53.10;;;;;;4163238;28;20242;-77
2022/08/06 09:36:12;;;;;;;4.87;4.43;;;21.20;52.70;;;;;;4181200;28;20176;-77
2022/08/06 09:38:15;;;;;;;34.50;21.60;;;21.30;53.10;;;;;;4180016;28;20179;-78
2022/08/06 09:40:18;;;;;;;42.23;22.47;;;21.50;51.10;;;;;;4179440;28;20271;-78
2022/08/06 09:42:41;;;;;;;7.00;6.47;;;21.70;50.00;;;;;;4179327;28;20204;-76
2022/08/06 09:44:42;;;;;;;15.87;14.73;;;21.70;49.40;;;;;;4179892;28;20207;-77
2022/08/06 09:46:49;;;;;;;101.10;24.30;;;22.20;48.70;;;;;;4195965;28;20206;-76
2022/08/06 09:48:57;;;;;;;508.37;132.17;;;22.30;48.10;;;;;;4181447;28;20316;-76
2022/08/06 09:50:57;;;;;;;8.53;4.73;;;21.80;49.80;;;;;;4181496;28;20247;-76
2022/08/06 09:53:02;;;;;;;6.33;5.93;;;21.50;51.20;;;;;;4181735;28;20276;-76
2022/08/06 09:55:04;;;;;;;33.77;19.80;;;22.10;48.90;;;;;;4181646;28;20196;-74
2022/08/06 09:57:05;;;;;;;133.20;35.80;;;22.30;47.80;;;;;;4181653;28;20871;-76
2022/08/06 09:59:07;;;;;;;34.93;18.83;;;22.40;46.60;;;;;;4164963;28;20252;-76
2022/08/06 10:01:19;;;;;;;435.37;87.03;;;22.10;47.40;;;;;;4180957;28;20673;-76
2022/08/06 10:03:19;;;;;;;711.63;143.63;;;21.30;50.00;;;;;;4182857;28;20173;-75
2022/08/06 10:05:24;;;;;;;13.77;12.50;;;21.00;50.70;;;;;;4174674;28;20195;-76
2022/08/06 10:07:30;;;;;;;16.43;15.20;;;21.30;50.20;;;;;;4165739;28;20208;-75
2022/08/06 10:09:33;;;;;;;102.00;95.27;;;21.00;51.50;;;;;;4165940;28;20173;-75
2022/08/06 10:11:40;;;;;;;4.43;3.37;;;20.70;52.20;;;;;;4181687;28;20212;-75
2022/08/06 10:13:47;;;;;;;67.77;23.33;;;20.40;53.50;;;;;;4182886;28;20256;-75
2022/08/06 10:15:50;;;;;;;13.90;12.27;;;20.30;53.70;;;;;;4183413;28;20604;-74
2022/08/06 10:17:52;;;;;;;18.23;15.53;;;20.50;52.60;;;;;;4182135;28;20825;-75
2022/08/06 10:20:14;;;;;;;77.87;32.03;;;20.60;52.80;;;;;;4182403;28;20184;-75
2022/08/06 10:22:17;;;;;;;105.37;40.77;;;20.40;52.80;;;;;;4181227;28;20200;-75
2022/08/06 10:24:20;;;;;;;99.00;22.83;;;20.50;52.60;;;;;;4181397;28;20187;-74
2022/08/06 10:26:33;;;;;;;1051.57;230.50;;;20.70;51.80;;;;;;4181365;28;20196;-75
2022/08/06 10:28:36;;;;;;;3.60;3.30;;;20.00;53.20;;;;;;4181339;28;20211;-74
2022/08/06 10:30:36;;;;;;;227.33;75.83;;;20.10;54.40;;;;;;4180908;28;20211;-76
2022/08/06 10:32:59;;;;;;;9.03;7.40;;;19.70;54.20;;;;;;4164886;28;20212;-76
2022/08/06 10:35:04;;;;;;;4.47;4.03;;;19.40;55.80;;;;;;4182755;28;20204;-76
2022/08/06 10:37:07;;;;;;;60.97;54.63;;;19.90;55.20;;;;;;4181090;28;20176;-77
2022/08/06 10:39:09;;;;;;;43.30;25.03;;;19.90;54.90;;;;;;4181210;28;20185;-74